Time,TemperatureF,DewpointF,PressureIn,WindDirection,WindDirectionDegrees,WindSpeedMPH,WindSpeedGustMPH,Humidity,HourlyPrecipIn,Conditions,Clouds,dailyrainin,SoftwareType,DateUTC
2013-02-19 00:00:00,43.4,20.1,29.85,SE,145,0.0,0.0,39,0.00,,CLR,0.00,VWS V12.08,2013-02-19 05:00:00,
2013-02-19 00:05:00,43.6,20.3,29.85,South,178,0.0,0.0,39,0.00,,CLR,0.00,VWS V12.08,2013-02-19 05:05:00,
2013-02-19 00:10:00,43.6,20.3,29.85,SW,214,0.0,0.0,39,0.00,,CLR,0.00,VWS V12.08,2013-02-19 05:10:00,
2013-02-19 00:15:00,43.6,20.3,29.85,SSW,205,0.0,0.0,39,0.00,,CLR,0.00,VWS V12.08,2013-02-19 05:15:00,
2013-02-19 00:20:00,43.6,20.3,29.85,SW,221,0.0,0.0,39,0.00,,CLR,0.00,VWS V12.08,2013-02-19 05:20:00,
2013-02-19 00:25:00,43.6,20.3,29.85,South,182,0.0,0.0,39,0.00,,CLR,0.00,VWS V12.08,2013-02-19 05:25:00,
2013-02-19 00:30:00,43.4,20.1,29.85,SE,143,0.0,0.0,39,0.00,,CLR,0.00,VWS V12.08,2013-02-19 05:30:00,
2013-02-19 00:35:00,43.2,19.9,29.85,SW,229,0.0,0.0,39,0.00,,CLR,0.00,VWS V12.08,2013-02-19 05:35:00,
2013-02-19 00:40:00,43.2,19.9,29.85,SSE,157,0.0,0.0,39,0.00,,CLR,0.00,VWS V12.08,2013-02-19 05:40:00,
2013-02-19 00:45:00,43.0,19.2,29.85,South,184,0.0,0.0,38,0.00,,CLR,0.00,VWS V12.08,2013-02-19 05:45:00,
2013-02-19 00:50:00,42.8,19.6,29.85,South,187,0.0,0.0,39,0.00,,CLR,0.00,VWS V12.08,2013-02-19 05:50:00,
2013-02-19 00:55:00,42.8,19.6,29.85,SSE,162,0.0,0.0,39,0.00,,CLR,0.00,VWS V12.08,2013-02-19 05:55:00,
2013-02-19 01:00:00,42.7,19.5,29.85,SSW,200,0.0,0.0,39,0.00,,CLR,0.00,VWS V12.08,2013-02-19 06:00:00,
2013-02-19 01:05:00,42.5,19.3,29.85,SW,232,0.0,0.0,39,0.00,,CLR,0.00,VWS V12.08,2013-02-19 06:05:00,
2013-02-19 01:10:00,42.7,19.5,29.85,SSW,196,0.0,0.0,39,0.00,,CLR,0.00,VWS V12.08,2013-02-19 06:10:00,
2013-02-19 01:15:00,42.8,19.0,29.85,North,6,0.0,0.0,38,0.00,,CLR,0.00,VWS V12.08,2013-02-19 06:15:00,
2013-02-19 01:20:00,43.0,19.2,29.85,South,191,0.0,0.0,38,0.00,,CLR,0.00,VWS V12.08,2013-02-19 06:20:00,
2013-02-19 01:26:00,43.2,19.3,29.85,South,191,0.0,0.0,38,0.00,,CLR,0.00,VWS V12.08,2013-02-19 06:26:00,
2013-02-19 01:31:00,43.4,19.5,29.85,SSE,153,0.0,0.0,38,0.00,,CLR,0.00,VWS V12.08,2013-02-19 06:31:00,
2013-02-19 01:36:00,43.7,19.8,29.82,NW,307,0.0,0.0,38,0.00,,CLR,0.00,VWS V12.08,2013-02-19 06:36:00,
2013-02-19 01:41:00,43.7,19.8,29.82,SSW,204,0.0,0.0,38,0.00,,CLR,0.00,VWS V12.08,2013-02-19 06:41:00,
2013-02-19 01:46:00,43.7,19.8,29.82,SSW,192,0.0,0.0,38,0.00,,CLR,0.00,VWS V12.08,2013-02-19 06:46:00,
2013-02-19 01:51:00,43.7,19.8,29.82,WSW,244,0.0,0.0,38,0.00,,CLR,0.00,VWS V12.08,2013-02-19 06:51:00,
2013-02-19 01:56:00,43.7,19.8,29.82,SW,232,0.0,0.0,38,0.00,,CLR,0.00,VWS V12.08,2013-02-19 06:56:00,
2013-02-19 02:01:00,43.7,19.8,29.82,SSE,149,0.0,0.0,38,0.00,,CLR,0.00,VWS V12.08,2013-02-19 07:01:00,
2013-02-19 02:06:00,43.9,20.0,29.82,West,270,0.0,0.0,38,0.00,,CLR,0.00,VWS V12.08,2013-02-19 07:06:00,
2013-02-19 02:11:00,43.7,19.8,29.82,South,179,0.0,0.0,38,0.00,,CLR,0.00,VWS V12.08,2013-02-19 07:11:00,
2013-02-19 02:16:00,43.7,19.8,29.82,SE,129,0.0,0.0,38,0.00,,CLR,0.00,VWS V12.08,2013-02-19 07:16:00,
2013-02-19 02:21:00,43.7,19.8,29.82,SW,215,0.0,0.0,38,0.00,,CLR,0.00,VWS V12.08,2013-02-19 07:21:00,
2013-02-19 02:26:00,43.4,19.5,29.82,South,186,0.0,0.0,38,0.00,,CLR,0.00,VWS V12.08,2013-02-19 07:26:00,
2013-02-19 02:31:00,43.4,19.5,29.82,SSW,208,0.0,0.0,38,0.00,,CLR,0.00,VWS V12.08,2013-02-19 07:31:00,
2013-02-19 02:36:00,43.2,19.3,29.82,SW,219,0.0,0.0,38,0.00,,CLR,0.00,VWS V12.08,2013-02-19 07:36:00,
2013-02-19 02:41:00,43.0,19.2,29.82,WSW,243,0.0,0.0,38,0.00,,CLR,0.00,VWS V12.08,2013-02-19 07:41:00,
2013-02-19 02:46:00,42.8,19.6,29.82,WSW,237,0.0,0.0,39,0.00,,FEW120,0.00,VWS V12.08,2013-02-19 07:46:00,
2013-02-19 02:51:00,42.7,19.5,29.82,SW,223,0.0,0.0,39,0.00,,FEW120,0.00,VWS V12.08,2013-02-19 07:51:00,
2013-02-19 02:56:00,42.3,19.1,29.82,SSW,199,0.0,0.0,39,0.00,,FEW120,0.00,VWS V12.08,2013-02-19 07:56:00,
2013-02-19 03:01:00,42.8,19.6,29.82,WSW,244,0.0,0.0,39,0.00,,FEW120,0.00,VWS V12.08,2013-02-19 08:01:00,
2013-02-19 03:06:00,43.0,19.8,29.82,SSW,195,0.0,0.0,39,0.00,,FEW120,0.00,VWS V12.08,2013-02-19 08:06:00,
2013-02-19 03:11:00,43.4,20.1,29.82,SSW,202,0.0,0.0,39,0.00,,FEW120,0.00,VWS V12.08,2013-02-19 08:11:00,
2013-02-19 03:16:00,43.6,20.3,29.82,SW,229,0.0,0.0,39,0.00,,FEW120,0.00,VWS V12.08,2013-02-19 08:16:00,
2013-02-19 03:21:00,43.6,20.3,29.82,SW,233,0.0,0.0,39,0.00,,FEW120,0.00,VWS V12.08,2013-02-19 08:21:00,
2013-02-19 03:26:00,43.2,19.9,29.82,South,187,0.0,0.0,39,0.00,,FEW120,0.00,VWS V12.08,2013-02-19 08:26:00,
2013-02-19 03:31:00,43.6,20.3,29.82,SW,231,0.0,0.0,39,0.00,,FEW120,0.00,VWS V12.08,2013-02-19 08:31:00,
2013-02-19 03:36:00,44.1,20.7,29.79,South,183,0.0,0.0,39,0.00,,FEW120,0.00,VWS V12.08,2013-02-19 08:36:00,
2013-02-19 03:41:00,44.1,20.7,29.79,SSW,203,0.0,0.0,39,0.00,,FEW120,0.00,VWS V12.08,2013-02-19 08:41:00,
2013-02-19 03:46:00,43.7,21.0,29.79,SE,141,0.0,0.0,40,0.00,,-RA,0.00,VWS V12.08,2013-02-19 08:46:00,
2013-02-19 03:51:00,43.4,20.7,29.79,WSW,246,0.0,0.0,40,0.00,,-RA,0.00,VWS V12.08,2013-02-19 08:51:00,
2013-02-19 03:56:00,43.4,21.3,29.79,SW,231,0.0,0.0,41,0.00,,-RA,0.00,VWS V12.08,2013-02-19 08:56:00,
2013-02-19 04:01:00,43.2,21.7,29.79,SSE,153,0.0,0.0,42,0.00,,-RA,0.00,VWS V12.08,2013-02-19 09:01:00,
2013-02-19 04:06:00,43.4,21.3,29.79,SW,227,0.0,0.0,41,0.00,,-RA,0.00,VWS V12.08,2013-02-19 09:06:00,
2013-02-19 04:11:00,44.6,21.8,29.79,SSW,197,0.0,0.0,40,0.00,,-RA,0.00,VWS V12.08,2013-02-19 09:11:00,
2013-02-19 04:16:00,45.0,21.5,29.79,SW,222,0.0,0.0,39,0.00,,-RA,0.00,VWS V12.08,2013-02-19 09:16:00,
2013-02-19 04:21:00,44.8,21.4,29.79,SW,223,0.0,0.0,39,0.00,,-RA,0.00,VWS V12.08,2013-02-19 09:21:00,
2013-02-19 04:26:00,44.3,20.9,29.79,SSE,166,0.0,0.0,39,0.00,,-RA,0.00,VWS V12.08,2013-02-19 09:26:00,
2013-02-19 04:31:00,44.6,21.8,29.79,SW,217,0.0,0.0,40,0.00,,-RA,0.00,VWS V12.08,2013-02-19 09:31:00,
2013-02-19 04:36:00,44.6,21.2,29.76,SSW,196,0.0,0.0,39,0.00,,-RA,0.00,VWS V12.08,2013-02-19 09:36:00,
2013-02-19 04:41:00,44.5,22.2,29.76,SSW,195,0.0,0.0,41,0.00,,-RA,0.00,VWS V12.08,2013-02-19 09:41:00,
2013-02-19 04:46:00,44.6,25.1,29.76,SSW,207,0.0,0.0,46,0.00,,OVC055,0.00,VWS V12.08,2013-02-19 09:46:00,
2013-02-19 04:51:00,44.6,24.6,29.76,SW,228,0.0,0.0,45,0.00,,OVC055,0.00,VWS V12.08,2013-02-19 09:51:00,
2013-02-19 04:56:00,44.6,25.1,29.76,SW,222,0.0,0.0,46,0.00,,OVC055,0.00,VWS V12.08,2013-02-19 09:56:00,
2013-02-19 05:01:00,44.6,24.6,29.76,South,184,0.0,0.0,45,0.00,,OVC055,0.00,VWS V12.08,2013-02-19 10:01:00,
2013-02-19 05:06:00,44.5,24.5,29.76,SSW,206,0.0,0.0,45,0.00,,OVC055,0.00,VWS V12.08,2013-02-19 10:06:00,
2013-02-19 05:11:00,44.5,24.5,29.76,WSW,248,0.0,0.0,45,0.00,,OVC055,0.00,VWS V12.08,2013-02-19 10:11:00,
2013-02-19 05:16:00,44.5,25.5,29.76,SSE,155,0.0,0.0,47,0.00,,OVC055,0.00,VWS V12.08,2013-02-19 10:16:00,
2013-02-19 05:21:00,44.6,25.7,29.76,WSW,255,0.0,0.0,47,0.00,,OVC055,0.00,VWS V12.08,2013-02-19 10:21:00,
2013-02-19 05:26:00,44.6,26.2,29.76,SSW,206,9.6,10.5,48,0.00,,OVC055,0.00,VWS V12.08,2013-02-19 10:26:00,
2013-02-19 05:31:00,44.1,27.1,29.76,SW,216,12.8,14.5,51,0.00,,OVC055,0.00,VWS V12.08,2013-02-19 10:31:00,
2013-02-19 05:36:00,43.4,28.3,29.76,SSW,197,12.3,17.9,55,0.00,,OVC055,0.00,VWS V12.08,2013-02-19 10:36:00,
2013-02-19 05:41:00,43.2,28.6,29.76,South,172,8.1,16.8,56,0.00,,OVC055,0.00,VWS V12.08,2013-02-19 10:41:00,
2013-02-19 05:46:00,43.2,29.0,29.76,South,184,13.2,14.1,57,0.00,,OVC049,0.00,VWS V12.08,2013-02-19 10:46:00,
2013-02-19 05:51:00,42.8,29.9,29.76,SSW,213,6.3,8.7,60,0.00,,OVC049,0.00,VWS V12.08,2013-02-19 10:51:00,
2013-02-19 05:56:00,42.5,30.4,29.76,SSW,200,10.5,14.5,62,0.00,,OVC049,0.00,VWS V12.08,2013-02-19 10:56:00,
2013-02-19 06:01:00,42.1,31.2,29.76,SSW,203,4.5,10.5,65,0.00,,OVC049,0.00,VWS V12.08,2013-02-19 11:01:00,
2013-02-19 06:06:00,41.8,32.0,29.76,South,179,9.6,10.1,68,0.00,,OVC049,0.00,VWS V12.08,2013-02-19 11:06:00,
2013-02-19 06:11:00,41.2,32.9,29.76,SSW,210,8.1,11.9,72,0.00,,OVC049,0.00,VWS V12.08,2013-02-19 11:11:00,
2013-02-19 06:16:00,40.9,32.9,29.76,South,189,6.3,11.0,73,0.00,,OVC049,0.00,VWS V12.08,2013-02-19 11:16:00,
2013-02-19 06:21:00,40.7,33.7,29.76,SSW,203,4.9,11.0,76,0.00,,OVC049,0.00,VWS V12.08,2013-02-19 11:21:00,
2013-02-19 06:26:00,40.7,34.0,29.76,SSW,202,3.6,6.3,77,0.00,,OVC049,0.00,VWS V12.08,2013-02-19 11:26:00,
2013-02-19 06:31:00,40.5,34.5,29.76,SW,221,0.0,0.0,79,0.00,,OVC049,0.00,VWS V12.08,2013-02-19 11:31:00,
2013-02-19 06:36:00,40.5,35.1,29.73,South,188,0.0,0.0,81,0.00,,OVC049,0.00,VWS V12.08,2013-02-19 11:36:00,
2013-02-19 06:41:00,40.5,35.5,29.73,SW,219,0.0,0.0,82,0.00,,OVC049,0.00,VWS V12.08,2013-02-19 11:41:00,
2013-02-19 06:46:00,40.5,35.5,29.73,SW,220,0.0,0.0,82,0.00,,-RA,0.00,VWS V12.08,2013-02-19 11:46:00,
2013-02-19 06:51:00,40.5,35.8,29.73,SSW,205,0.0,0.0,83,0.00,,-RA,0.00,VWS V12.08,2013-02-19 11:51:00,
2013-02-19 06:56:00,40.5,35.8,29.73,WNW,295,0.0,0.0,83,0.00,,-RA,0.00,VWS V12.08,2013-02-19 11:56:00,
2013-02-19 07:01:00,40.5,36.0,29.73,South,169,0.0,0.0,84,0.00,,-RA,0.00,VWS V12.08,2013-02-19 12:01:00,
2013-02-19 07:06:00,40.3,35.9,29.73,SW,227,0.0,0.0,84,0.00,,-RA,0.00,VWS V12.08,2013-02-19 12:06:00,
2013-02-19 07:11:00,40.3,35.9,29.73,SSW,211,0.0,0.0,84,0.00,,-RA,0.00,VWS V12.08,2013-02-19 12:11:00,
2013-02-19 07:16:00,40.3,35.9,29.73,SSE,151,0.0,0.0,84,0.00,,-RA,0.00,VWS V12.08,2013-02-19 12:16:00,
2013-02-19 07:21:00,40.3,35.9,29.73,West,263,0.0,0.0,84,0.00,,-RA,0.00,VWS V12.08,2013-02-19 12:21:00,
2013-02-19 07:26:00,40.3,35.6,29.73,SSE,165,0.0,0.0,83,0.00,,-RA,0.00,VWS V12.08,2013-02-19 12:26:00,
2013-02-19 07:31:00,40.1,35.4,29.73,SSW,198,0.0,0.0,83,0.00,,-RA,0.00,VWS V12.08,2013-02-19 12:31:00,
2013-02-19 07:36:00,40.1,35.4,29.73,South,182,0.0,0.0,83,0.00,,-RA,0.00,VWS V12.08,2013-02-19 12:36:00,
2013-02-19 07:41:00,40.1,35.7,29.73,SSW,213,0.0,0.0,84,0.00,,-RA,0.00,VWS V12.08,2013-02-19 12:41:00,
2013-02-19 07:46:00,40.1,35.7,29.73,SW,214,0.0,0.0,84,0.00,,-RA,0.00,VWS V12.08,2013-02-19 12:46:00,
2013-02-19 07:51:00,40.1,35.7,29.73,SW,219,0.0,0.0,84,0.00,,-RA,0.00,VWS V12.08,2013-02-19 12:51:00,
2013-02-19 07:56:00,40.1,35.4,29.73,SW,230,0.0,0.0,83,0.04,,-RA,0.04,VWS V12.08,2013-02-19 12:56:00,
2013-02-19 08:01:00,40.3,35.6,29.73,SW,223,0.0,0.0,83,0.04,,-RA,0.04,VWS V12.08,2013-02-19 13:01:00,
2013-02-19 08:06:00,40.3,35.6,29.73,WSW,254,0.0,0.0,83,0.04,,-RA,0.04,VWS V12.08,2013-02-19 13:06:00,
2013-02-19 08:11:00,40.3,35.6,29.73,SSW,210,0.0,0.0,83,0.04,,-RA,0.04,VWS V12.08,2013-02-19 13:11:00,
2013-02-19 08:16:00,40.5,35.5,29.73,SW,216,0.0,0.0,82,0.04,,-RA,0.04,VWS V12.08,2013-02-19 13:16:00,
2013-02-19 08:21:00,40.5,35.5,29.73,SSW,195,0.0,0.0,82,0.04,,-RA,0.04,VWS V12.08,2013-02-19 13:21:00,
2013-02-19 08:26:00,40.5,35.8,29.73,SSW,202,0.0,0.0,83,0.04,,-RA,0.04,VWS V12.08,2013-02-19 13:26:00,
2013-02-19 08:31:00,40.7,35.9,29.73,SW,217,0.0,0.0,83,0.04,,-RA,0.04,VWS V12.08,2013-02-19 13:31:00,
2013-02-19 08:36:00,40.7,35.9,29.73,SSW,203,0.0,0.0,83,0.04,,-RA,0.04,VWS V12.08,2013-02-19 13:36:00,
2013-02-19 08:41:00,40.7,35.9,29.73,SSW,194,0.0,0.0,83,0.04,,-RA,0.04,VWS V12.08,2013-02-19 13:41:00,
2013-02-19 08:46:00,40.7,35.9,29.73,SSW,207,0.0,0.0,83,0.04,,-RA,0.04,VWS V12.08,2013-02-19 13:46:00,
2013-02-19 08:51:00,40.9,36.1,29.73,SSW,200,0.0,0.0,83,0.04,,-RA,0.04,VWS V12.08,2013-02-19 13:51:00,
2013-02-19 08:56:00,40.9,36.4,29.73,South,174,0.0,0.0,84,0.04,,-RA,0.04,VWS V12.08,2013-02-19 13:56:00,
2013-02-19 09:01:00,40.9,36.4,29.73,SSW,194,0.0,0.0,84,0.00,,-RA,0.04,VWS V12.08,2013-02-19 14:01:00,
2013-02-19 09:06:00,40.9,36.7,29.70,WSW,245,0.0,0.0,85,0.00,,-RA,0.04,VWS V12.08,2013-02-19 14:06:00,
2013-02-19 09:11:00,41.0,36.9,29.70,SSW,210,0.0,0.0,85,0.00,,-RA,0.04,VWS V12.08,2013-02-19 14:11:00,
2013-02-19 09:16:00,41.0,36.9,29.70,WSW,257,0.0,0.0,85,0.00,,-RA,0.04,VWS V12.08,2013-02-19 14:16:00,
2013-02-19 09:21:00,41.0,36.9,29.70,SW,224,0.0,0.0,85,0.00,,-RA,0.04,VWS V12.08,2013-02-19 14:21:00,
2013-02-19 09:26:00,41.0,37.2,29.70,SSE,157,5.4,7.6,86,0.00,,-RA,0.04,VWS V12.08,2013-02-19 14:26:00,
2013-02-19 09:31:00,41.0,37.2,29.70,SW,220,5.8,6.3,86,0.00,,-RA,0.04,VWS V12.08,2013-02-19 14:31:00,
2013-02-19 09:36:00,41.2,37.1,29.70,SW,216,8.1,8.7,85,0.00,,-RA,0.04,VWS V12.08,2013-02-19 14:36:00,
2013-02-19 09:41:00,41.2,36.8,29.70,South,186,5.8,9.6,84,0.00,,-RA,0.04,VWS V12.08,2013-02-19 14:41:00,
2013-02-19 09:46:00,41.4,36.9,29.70,SSW,195,8.1,10.5,84,0.00,,-RA,0.04,VWS V12.08,2013-02-19 14:46:00,
2013-02-19 09:51:00,41.6,36.5,29.70,South,190,10.5,10.5,82,0.00,,-RA,0.04,VWS V12.08,2013-02-19 14:51:00,
2013-02-19 09:56:00,41.8,36.4,29.70,South,188,8.1,9.2,81,0.00,,-RA,0.04,VWS V12.08,2013-02-19 14:56:00,
2013-02-19 10:01:00,41.9,36.2,29.70,SSW,212,5.8,6.3,80,0.00,,-RA,0.04,VWS V12.08,2013-02-19 15:01:00,
2013-02-19 10:06:00,42.1,35.4,29.70,South,169,7.6,8.1,77,0.00,,-RA,0.04,VWS V12.08,2013-02-19 15:06:00,
2013-02-19 10:11:00,42.1,34.8,29.70,SW,219,12.8,15.0,75,0.00,,-RA,0.04,VWS V12.08,2013-02-19 15:11:00,
2013-02-19 10:16:00,42.3,34.3,29.70,SE,142,10.1,11.0,73,0.00,,-RA,0.04,VWS V12.08,2013-02-19 15:16:00,
2013-02-19 10:21:00,42.5,34.1,29.70,SW,220,4.0,10.5,72,0.00,,-RA,0.04,VWS V12.08,2013-02-19 15:21:00,
2013-02-19 10:26:00,42.5,33.8,29.70,SW,222,8.1,9.2,71,0.00,,-RA,0.04,VWS V12.08,2013-02-19 15:26:00,
2013-02-19 10:31:00,42.7,33.9,29.70,SSW,209,8.7,12.8,71,0.00,,-RA,0.04,VWS V12.08,2013-02-19 15:31:00,
2013-02-19 10:36:00,42.8,34.1,29.70,WSW,250,6.3,10.5,71,0.00,,-RA,0.04,VWS V12.08,2013-02-19 15:36:00,
2013-02-19 10:41:00,43.0,33.9,29.70,SW,231,8.7,8.7,70,0.00,,-RA,0.04,VWS V12.08,2013-02-19 15:41:00,
2013-02-19 10:46:00,43.0,33.9,29.70,South,171,10.1,14.5,70,0.00,,-RA,0.04,VWS V12.08,2013-02-19 15:46:00,
2013-02-19 10:51:00,43.0,33.6,29.70,South,177,8.7,10.1,69,0.00,,-RA,0.04,VWS V12.08,2013-02-19 15:51:00,
2013-02-19 10:56:00,43.0,33.2,29.70,SW,214,10.5,13.6,68,0.00,,-RA,0.04,VWS V12.08,2013-02-19 15:56:00,
2013-02-19 11:01:00,43.0,33.2,29.70,SW,225,7.6,8.7,68,0.00,,-RA,0.04,VWS V12.08,2013-02-19 16:01:00,
2013-02-19 11:06:00,43.0,33.2,29.70,SSW,212,8.1,11.0,68,0.00,,-RA,0.04,VWS V12.08,2013-02-19 16:06:00,
2013-02-19 11:11:00,43.0,33.6,29.70,SSW,211,6.7,8.3,69,0.00,,-RA,0.04,VWS V12.08,2013-02-19 16:11:00,
2013-02-19 11:16:00,43.0,33.2,29.70,SSW,211,12.8,13.2,68,0.00,,-RA,0.04,VWS V12.08,2013-02-19 16:16:00,
2013-02-19 11:21:00,43.4,33.5,29.70,SW,224,6.3,8.3,68,0.00,,-RA,0.04,VWS V12.08,2013-02-19 16:21:00,
2013-02-19 11:26:00,43.6,33.0,29.70,SSW,208,8.3,15.0,66,0.00,,-RA,0.04,VWS V12.08,2013-02-19 16:26:00,
2013-02-19 11:31:00,43.9,32.9,29.70,SSW,195,10.1,15.4,65,0.00,,-RA,0.04,VWS V12.08,2013-02-19 16:31:00,
2013-02-19 11:36:00,43.9,32.9,29.67,SW,218,7.2,10.1,65,0.00,,-RA,0.04,VWS V12.08,2013-02-19 16:36:00,
2013-02-19 11:41:00,43.9,32.9,29.67,South,182,7.6,7.6,65,0.00,,-RA,0.04,VWS V12.08,2013-02-19 16:41:00,
2013-02-19 11:46:00,43.9,32.9,29.67,SSW,211,6.3,9.2,65,0.00,,-RA,0.04,VWS V12.08,2013-02-19 16:46:00,
2013-02-19 11:51:00,44.1,32.7,29.67,SSW,201,10.5,10.5,64,0.00,,-RA,0.04,VWS V12.08,2013-02-19 16:51:00,
2013-02-19 11:56:00,43.9,32.9,29.67,SSE,161,11.0,11.0,65,0.00,,-RA,0.04,VWS V12.08,2013-02-19 16:56:00,
2013-02-19 12:01:00,43.9,32.9,29.67,WSW,237,13.2,13.2,65,0.00,,-RA,0.04,VWS V12.08,2013-02-19 17:01:00,
2013-02-19 12:06:00,43.9,32.9,29.67,SW,230,4.0,8.3,65,0.00,,-RA,0.04,VWS V12.08,2013-02-19 17:06:00,
2013-02-19 12:11:00,43.9,32.5,29.67,SW,215,0.0,8.7,64,0.00,,-RA,0.04,VWS V12.08,2013-02-19 17:11:00,
2013-02-19 12:16:00,44.1,32.7,29.67,SSW,207,0.0,0.0,64,0.00,,-RA,0.04,VWS V12.08,2013-02-19 17:16:00,
2013-02-19 12:21:00,44.1,32.3,29.67,SW,218,0.0,0.0,63,0.00,,-RA,0.04,VWS V12.08,2013-02-19 17:21:00,
2013-02-19 12:26:00,44.1,31.9,29.67,South,181,0.0,0.0,62,0.00,,-RA,0.04,VWS V12.08,2013-02-19 17:26:00,
2013-02-19 12:31:00,44.1,32.3,29.67,SSW,192,0.0,0.0,63,0.00,,-RA,0.04,VWS V12.08,2013-02-19 17:31:00,
2013-02-19 12:36:00,43.7,32.8,29.64,SSW,193,0.0,0.0,65,0.00,,-RA,0.04,VWS V12.08,2013-02-19 17:36:00,
2013-02-19 12:41:00,43.7,33.1,29.64,SW,226,0.0,0.0,66,0.00,,-RA,0.04,VWS V12.08,2013-02-19 17:41:00,
2013-02-19 12:46:00,42.5,34.5,29.64,SW,215,0.0,0.0,73,0.00,,-RA,0.04,VWS V12.08,2013-02-19 17:46:00,
2013-02-19 12:51:00,41.4,35.4,29.67,WNW,294,0.0,0.0,79,0.04,,-RA,0.08,VWS V12.08,2013-02-19 17:51:00,
2013-02-19 12:56:00,40.9,36.1,29.67,SW,226,0.0,0.0,83,0.04,,-RA,0.08,VWS V12.08,2013-02-19 17:56:00,
2013-02-19 13:01:00,40.9,36.4,29.67,South,176,0.0,0.0,84,0.04,,-RA,0.08,VWS V12.08,2013-02-19 18:01:00,
2013-02-19 13:06:00,41.0,36.6,29.67,SSW,206,0.0,0.0,84,0.04,,-RA,0.08,VWS V12.08,2013-02-19 18:06:00,
2013-02-19 13:11:00,39.8,33.8,29.67,SW,219,0.0,0.0,79,0.04,,-RA,0.08,VWS V12.08,2013-02-19 18:11:00,
2013-02-19 13:16:00,39.8,34.4,29.67,West,259,0.0,0.0,81,0.04,,-RA,0.08,VWS V12.08,2013-02-19 18:16:00,
2013-02-19 13:21:00,39.2,34.2,29.70,South,190,0.0,0.0,82,0.04,,-RA,0.08,VWS V12.08,2013-02-19 18:21:00,
2013-02-19 13:26:00,39.1,34.0,29.70,SW,232,0.0,0.0,82,0.04,,-RA,0.08,VWS V12.08,2013-02-19 18:26:00,
2013-02-19 13:31:00,38.9,33.6,29.70,SW,224,0.0,0.0,81,0.04,,-RA,0.08,VWS V12.08,2013-02-19 18:31:00,
2013-02-19 13:36:00,38.9,34.2,29.70,SW,219,0.0,0.0,83,0.04,,-RA,0.08,VWS V12.08,2013-02-19 18:36:00,
2013-02-19 13:41:00,39.1,34.3,29.70,South,189,0.0,0.0,83,0.04,,-RA,0.08,VWS V12.08,2013-02-19 18:41:00,
2013-02-19 13:46:00,38.9,33.9,29.70,SSW,211,0.0,0.0,82,0.04,,-RA,0.08,VWS V12.08,2013-02-19 18:46:00,
2013-02-19 13:51:00,39.1,34.6,29.70,SW,224,0.0,0.0,84,0.04,,-RA,0.08,VWS V12.08,2013-02-19 18:51:00,
2013-02-19 13:56:00,39.2,34.8,29.70,SW,219,0.0,0.0,84,0.04,,-RA,0.08,VWS V12.08,2013-02-19 18:56:00,
2013-02-19 14:01:00,39.1,33.4,29.70,SSW,212,0.0,0.0,80,0.00,,-RA,0.08,VWS V12.08,2013-02-19 19:01:00,
2013-02-19 14:06:00,38.7,33.1,29.70,WSW,241,0.0,0.0,80,0.00,,-RA,0.08,VWS V12.08,2013-02-19 19:06:00,
2013-02-19 14:11:00,38.3,32.4,29.70,WNW,290,0.0,0.0,79,0.00,,-RA,0.08,VWS V12.08,2013-02-19 19:11:00,
2013-02-19 14:16:00,37.8,29.9,29.70,SW,235,0.0,0.0,73,0.00,,-RA,0.08,VWS V12.08,2013-02-19 19:16:00,
2013-02-19 14:21:00,37.8,27.8,29.70,SW,217,0.0,0.0,67,0.00,,-RA,0.08,VWS V12.08,2013-02-19 19:21:00,
2013-02-19 14:26:00,37.6,26.6,29.70,NW,314,0.0,0.0,64,0.00,,-RA,0.08,VWS V12.08,2013-02-19 19:26:00,
2013-02-19 14:31:00,37.8,26.0,29.70,SW,232,0.0,0.0,62,0.00,,-RA,0.08,VWS V12.08,2013-02-19 19:31:00,
2013-02-19 14:36:00,38.2,26.7,29.73,SSW,198,0.0,0.0,63,0.00,,-RA,0.08,VWS V12.08,2013-02-19 19:36:00,
2013-02-19 14:41:00,39.2,27.7,29.73,West,260,0.0,0.0,63,0.00,,-RA,0.08,VWS V12.08,2013-02-19 19:41:00,
2013-02-19 14:46:00,40.1,28.2,29.73,SW,236,0.0,0.0,62,0.00,,-RA,0.08,VWS V12.08,2013-02-19 19:46:00,
2013-02-19 14:51:00,40.7,27.5,29.73,SW,215,0.0,0.0,59,0.00,,-RA,0.08,VWS V12.08,2013-02-19 19:51:00,
2013-02-19 14:56:00,40.7,27.1,29.73,SSW,204,0.0,0.0,58,0.00,,-RA,0.08,VWS V12.08,2013-02-19 19:56:00,
2013-02-19 15:01:00,40.1,26.6,29.73,SW,221,0.0,0.0,58,0.00,,-RA,0.08,VWS V12.08,2013-02-19 20:01:00,
2013-02-19 15:06:00,39.4,25.0,29.73,West,275,0.0,0.0,56,0.00,,-RA,0.08,VWS V12.08,2013-02-19 20:06:00,
2013-02-19 15:11:00,38.9,25.4,29.73,SSW,205,0.0,0.0,58,0.00,,-RA,0.08,VWS V12.08,2013-02-19 20:11:00,
2013-02-19 15:16:00,38.7,25.2,29.73,SW,217,0.0,0.0,58,0.00,,-RA,0.08,VWS V12.08,2013-02-19 20:16:00,
2013-02-19 15:21:00,38.5,25.0,29.73,North,1,0.0,0.0,58,0.00,,-RA,0.08,VWS V12.08,2013-02-19 20:21:00,
2013-02-19 15:26:00,38.7,25.2,29.73,SW,214,0.0,0.0,58,0.00,,-RA,0.08,VWS V12.08,2013-02-19 20:26:00,
2013-02-19 15:31:00,38.5,23.8,29.73,SW,230,0.0,0.0,55,0.00,,-RA,0.08,VWS V12.08,2013-02-19 20:31:00,
2013-02-19 15:36:00,38.3,23.6,29.73,West,259,0.0,0.0,55,0.00,,-RA,0.08,VWS V12.08,2013-02-19 20:36:00,
2013-02-19 15:41:00,38.5,23.8,29.73,SW,214,0.0,0.0,55,0.00,,-RA,0.08,VWS V12.08,2013-02-19 20:41:00,
2013-02-19 15:46:00,39.1,24.3,29.73,SW,217,0.0,0.0,55,0.00,,-RA,0.08,VWS V12.08,2013-02-19 20:46:00,
2013-02-19 15:51:00,38.9,22.8,29.73,WSW,237,0.0,0.0,52,0.00,,-RA,0.08,VWS V12.08,2013-02-19 20:51:00,
2013-02-19 15:56:00,38.5,22.9,29.73,WSW,256,0.0,0.0,53,0.00,,-RA,0.08,VWS V12.08,2013-02-19 20:56:00,
2013-02-19 16:01:00,38.3,22.3,29.73,West,259,0.0,0.0,52,0.00,,-RA,0.08,VWS V12.08,2013-02-19 21:01:00,
2013-02-19 16:06:00,38.3,22.3,29.73,South,191,0.0,0.0,52,0.00,,-RA,0.08,VWS V12.08,2013-02-19 21:06:00,
2013-02-19 16:11:00,38.3,22.3,29.73,SSW,205,0.0,0.0,52,0.00,,-RA,0.08,VWS V12.08,2013-02-19 21:11:00,
2013-02-19 16:16:00,38.3,21.3,29.73,SW,231,0.0,0.0,50,0.00,,-RA,0.08,VWS V12.08,2013-02-19 21:16:00,
2013-02-19 16:21:00,38.2,21.2,29.73,SW,223,0.0,0.0,50,0.00,,-RA,0.08,VWS V12.08,2013-02-19 21:21:00,
2013-02-19 16:26:00,38.2,21.6,29.73,SSW,210,0.0,0.0,51,0.00,,-RA,0.08,VWS V12.08,2013-02-19 21:26:00,
2013-02-19 16:31:00,38.2,21.6,29.73,SSW,200,0.0,0.0,51,0.00,,-RA,0.08,VWS V12.08,2013-02-19 21:31:00,
2013-02-19 16:36:00,38.0,21.0,29.76,WSW,241,0.0,0.0,50,0.00,,-RA,0.08,VWS V12.08,2013-02-19 21:36:00,
2013-02-19 16:41:00,37.8,20.8,29.76,SW,232,0.0,0.0,50,0.00,,-RA,0.08,VWS V12.08,2013-02-19 21:41:00,
2013-02-19 16:46:00,37.4,20.0,29.76,WSW,256,0.0,0.0,49,0.00,,-RA,0.08,VWS V12.08,2013-02-19 21:46:00,
2013-02-19 16:51:00,37.1,18.7,29.76,SSW,209,0.0,0.0,47,0.00,,-RA,0.08,VWS V12.08,2013-02-19 21:51:00,
2013-02-19 16:56:00,37.1,18.7,29.76,SSW,211,0.0,0.0,47,0.00,,-RA,0.08,VWS V12.08,2013-02-19 21:56:00,
2013-02-19 17:01:00,36.9,18.1,29.76,WSW,243,0.0,0.0,46,0.00,,-RA,0.08,VWS V12.08,2013-02-19 22:01:00,
2013-02-19 17:06:00,36.7,19.4,29.76,SSW,205,0.0,0.0,49,0.00,,-RA,0.08,VWS V12.08,2013-02-19 22:06:00,
2013-02-19 17:11:00,36.5,19.2,29.76,WSW,247,0.0,0.0,49,0.00,,-RA,0.08,VWS V12.08,2013-02-19 22:11:00,
2013-02-19 17:16:00,36.2,18.9,29.76,SW,216,0.0,0.0,49,0.00,,-RA,0.08,VWS V12.08,2013-02-19 22:16:00,
2013-02-19 17:21:00,36.4,19.0,29.79,SW,221,0.0,0.0,49,0.00,,-RA,0.08,VWS V12.08,2013-02-19 22:21:00,
2013-02-19 17:26:00,36.2,17.9,29.79,SSW,193,0.0,0.0,47,0.00,,-RA,0.08,VWS V12.08,2013-02-19 22:26:00,
2013-02-19 17:31:00,36.0,18.2,29.79,SW,216,0.0,0.0,48,0.00,,-RA,0.08,VWS V12.08,2013-02-19 22:31:00,
2013-02-19 17:36:00,35.6,16.9,29.79,SSW,195,0.0,0.0,46,0.00,,-RA,0.08,VWS V12.08,2013-02-19 22:36:00,
2013-02-19 17:41:00,35.3,17.6,29.79,SW,224,0.0,0.0,48,0.00,,-RA,0.08,VWS V12.08,2013-02-19 22:41:00,
2013-02-19 17:46:00,35.3,17.6,29.79,SSW,200,8.3,8.7,48,0.00,,-RA,0.08,VWS V12.08,2013-02-19 22:46:00,
2013-02-19 17:51:00,35.1,16.9,29.79,West,261,4.0,6.3,47,0.00,,-RA,0.08,VWS V12.08,2013-02-19 22:51:00,
2013-02-19 17:56:00,35.1,16.4,29.79,SW,216,6.3,8.1,46,0.00,,-RA,0.08,VWS V12.08,2013-02-19 22:56:00,
2013-02-19 18:01:00,34.9,16.8,29.79,SW,228,7.6,7.6,47,0.00,,-RA,0.08,VWS V12.08,2013-02-19 23:01:00,
2013-02-19 18:06:00,34.9,16.2,29.82,SW,227,5.8,6.3,46,0.00,,-RA,0.08,VWS V12.08,2013-02-19 23:06:00,
2013-02-19 18:11:00,34.7,15.6,29.82,SW,224,5.8,5.8,45,0.00,,-RA,0.08,VWS V12.08,2013-02-19 23:11:00,
2013-02-19 18:16:00,34.6,15.9,29.82,SW,220,4.9,6.3,46,0.00,,-RA,0.08,VWS V12.08,2013-02-19 23:16:00,
2013-02-19 18:22:00,34.4,16.2,29.82,West,262,7.2,10.1,47,0.00,,-RA,0.08,VWS V12.08,2013-02-19 23:22:00,
2013-02-19 18:27:00,34.2,17.5,29.82,SW,217,8.1,8.3,50,0.00,,-RA,0.08,VWS V12.08,2013-02-19 23:27:00,
2013-02-19 18:32:00,34.2,17.5,29.82,SSW,211,8.1,8.7,50,0.00,,-RA,0.08,VWS V12.08,2013-02-19 23:32:00,
2013-02-19 18:37:00,34.0,17.4,29.82,SSW,203,4.0,5.8,50,0.00,,-RA,0.08,VWS V12.08,2013-02-19 23:37:00,
2013-02-19 18:42:00,34.0,17.4,29.82,SW,220,5.4,6.3,50,0.00,,-RA,0.08,VWS V12.08,2013-02-19 23:42:00,
2013-02-19 18:47:00,33.8,17.6,29.82,SSW,213,5.4,7.6,51,0.00,,-RA,0.08,VWS V12.08,2013-02-19 23:47:00,
2013-02-19 18:52:00,33.7,17.0,29.82,SW,235,5.8,10.5,50,0.00,,-RA,0.08,VWS V12.08,2013-02-19 23:52:00,
2013-02-19 18:57:00,33.5,17.3,29.82,SSW,197,4.9,8.3,51,0.00,,-RA,0.08,VWS V12.08,2013-02-19 23:57:00,
2013-02-19 19:02:00,33.3,17.1,29.82,SW,217,4.0,10.5,51,0.00,,-RA,0.08,VWS V12.08,2013-02-20 00:02:00,
2013-02-19 19:07:00,33.1,17.0,29.82,South,191,7.6,8.3,51,0.00,,-RA,0.08,VWS V12.08,2013-02-20 00:07:00,
2013-02-19 19:12:00,32.9,17.2,29.82,WNW,297,2.2,4.0,52,0.00,,-RA,0.08,VWS V12.08,2013-02-20 00:12:00,
2013-02-19 19:17:00,32.9,16.8,29.82,SW,232,6.3,8.7,51,0.00,,-RA,0.08,VWS V12.08,2013-02-20 00:17:00,
2013-02-19 19:22:00,33.1,17.0,29.85,WSW,255,8.1,10.5,51,0.00,,-RA,0.08,VWS V12.08,2013-02-20 00:22:00,
2013-02-19 19:27:00,32.9,16.8,29.85,West,264,8.1,10.5,51,0.00,,-RA,0.08,VWS V12.08,2013-02-20 00:27:00,
2013-02-19 19:32:00,32.8,16.6,29.85,SSW,210,5.8,10.1,51,0.00,,-RA,0.08,VWS V12.08,2013-02-20 00:32:00,
2013-02-19 19:37:00,32.6,16.9,29.85,SSW,206,5.4,7.6,52,0.00,,-RA,0.08,VWS V12.08,2013-02-20 00:37:00,
2013-02-19 19:42:00,32.4,16.8,29.85,West,261,3.6,7.6,52,0.00,,-RA,0.08,VWS V12.08,2013-02-20 00:42:00,
2013-02-19 19:47:00,32.2,16.6,29.85,SSW,194,7.6,8.7,52,0.00,,-RA,0.08,VWS V12.08,2013-02-20 00:47:00,
2013-02-19 19:52:00,32.0,16.4,29.85,WSW,238,8.7,8.7,52,0.00,,-RA,0.08,VWS V12.08,2013-02-20 00:52:00,
2013-02-19 19:57:00,31.9,16.7,29.85,SSW,202,5.4,7.6,53,0.00,,-RA,0.08,VWS V12.08,2013-02-20 00:57:00,
2013-02-19 20:02:00,31.7,16.5,29.85,WSW,247,12.8,12.8,53,0.00,,-RA,0.08,VWS V12.08,2013-02-20 01:02:00,
2013-02-19 20:07:00,31.7,16.5,29.85,SSW,211,4.0,6.3,53,0.00,,-RA,0.08,VWS V12.08,2013-02-20 01:07:00,
2013-02-19 20:12:00,31.3,16.2,29.85,West,261,6.3,10.5,53,0.00,,-RA,0.08,VWS V12.08,2013-02-20 01:12:00,
2013-02-19 20:17:00,31.1,16.0,29.85,WSW,240,6.3,6.3,53,0.00,,-RA,0.08,VWS V12.08,2013-02-20 01:17:00,
2013-02-19 20:22:00,30.8,16.1,29.85,SSW,206,5.4,12.8,54,0.00,,-RA,0.08,VWS V12.08,2013-02-20 01:22:00,
2013-02-19 20:27:00,30.8,16.1,29.85,SW,222,8.1,8.1,54,0.00,,-RA,0.08,VWS V12.08,2013-02-20 01:27:00,
2013-02-19 20:32:00,31.0,16.7,29.85,SW,221,11.0,11.0,55,0.00,,-RA,0.08,VWS V12.08,2013-02-20 01:32:00,
2013-02-19 20:37:00,31.0,17.1,29.88,West,270,3.6,5.4,56,0.00,,-RA,0.08,VWS V12.08,2013-02-20 01:37:00,
2013-02-19 20:42:00,30.8,17.4,29.88,SW,231,5.4,7.6,57,0.00,,-RA,0.08,VWS V12.08,2013-02-20 01:42:00,
2013-02-19 20:47:00,30.6,17.6,29.88,SW,234,6.3,6.3,58,0.00,,-RA,0.08,VWS V12.08,2013-02-20 01:47:00,
2013-02-19 20:52:00,30.4,17.8,29.88,SSW,208,8.1,10.5,59,0.00,,-RA,0.08,VWS V12.08,2013-02-20 01:52:00,
2013-02-19 20:57:00,30.4,18.6,29.88,SW,218,8.3,8.3,61,0.00,,-RA,0.08,VWS V12.08,2013-02-20 01:57:00,
2013-02-19 21:02:00,30.2,18.4,29.88,SW,219,4.9,10.1,61,0.00,,-RA,0.08,VWS V12.08,2013-02-20 02:02:00,
2013-02-19 21:07:00,30.1,18.6,29.88,SW,223,5.4,7.6,62,0.00,,-RA,0.08,VWS V12.08,2013-02-20 02:07:00,
2013-02-19 21:12:00,29.9,18.5,29.88,SW,227,2.2,8.1,62,0.00,,-RA,0.08,VWS V12.08,2013-02-20 02:12:00,
2013-02-19 21:17:00,29.9,18.1,29.88,SW,221,8.1,8.3,61,0.00,,-RA,0.08,VWS V12.08,2013-02-20 02:17:00,
2013-02-19 21:22:00,29.9,18.1,29.88,WSW,237,5.4,5.4,61,0.00,,-RA,0.08,VWS V12.08,2013-02-20 02:22:00,
2013-02-19 21:27:00,29.9,18.1,29.88,WSW,244,4.9,5.4,61,0.00,,-RA,0.08,VWS V12.08,2013-02-20 02:27:00,
2013-02-19 21:32:00,29.7,17.9,29.88,WSW,248,5.4,5.8,61,0.00,,-RA,0.08,VWS V12.08,2013-02-20 02:32:00,
2013-02-19 21:37:00,29.7,19.4,29.88,SW,223,5.8,8.3,65,0.00,,-RA,0.08,VWS V12.08,2013-02-20 02:37:00,
2013-02-19 21:42:00,28.6,20.1,29.88,SSW,204,5.8,8.7,70,0.00,,-RA,0.08,VWS V12.08,2013-02-20 02:42:00,
2013-02-19 21:47:00,28.1,20.9,29.88,SSW,211,4.0,8.7,74,0.00,,-RA,0.08,VWS V12.08,2013-02-20 02:47:00,
2013-02-19 21:52:00,28.1,21.8,29.91,SSW,212,5.8,6.3,77,0.00,,-RA,0.08,VWS V12.08,2013-02-20 02:52:00,
2013-02-19 21:57:00,27.7,21.5,29.91,West,265,4.0,5.8,77,0.00,,-RA,0.08,VWS V12.08,2013-02-20 02:57:00,
2013-02-19 22:02:00,27.7,21.1,29.91,SSW,212,2.2,4.9,76,0.00,,-RA,0.08,VWS V12.08,2013-02-20 03:02:00,
2013-02-19 22:07:00,27.5,20.4,29.91,SSW,208,6.3,6.3,74,0.00,,-RA,0.08,VWS V12.08,2013-02-20 03:07:00,
2013-02-19 22:12:00,27.4,19.9,29.91,SSW,207,4.0,7.6,73,0.00,,-RA,0.08,VWS V12.08,2013-02-20 03:12:00,
2013-02-19 22:17:00,27.4,19.2,29.91,SSW,210,5.8,5.8,71,0.00,,-RA,0.08,VWS V12.08,2013-02-20 03:17:00,
2013-02-19 22:22:00,27.4,18.5,29.91,SW,226,6.3,6.3,69,0.00,,-RA,0.08,VWS V12.08,2013-02-20 03:22:00,
2013-02-19 22:27:00,27.7,18.9,29.91,West,259,2.7,4.0,69,0.00,,-RA,0.08,VWS V12.08,2013-02-20 03:27:00,
2013-02-19 22:32:00,27.7,18.9,29.91,SW,220,5.8,5.8,69,0.00,,-RA,0.08,VWS V12.08,2013-02-20 03:32:00,
2013-02-19 22:37:00,27.7,17.9,29.91,SSW,206,4.0,5.4,66,0.00,,-RA,0.08,VWS V12.08,2013-02-20 03:37:00,
2013-02-19 22:42:00,27.7,17.1,29.91,WSW,237,8.1,10.5,64,0.00,,-RA,0.08,VWS V12.08,2013-02-20 03:42:00,
2013-02-19 22:47:00,27.4,15.7,29.91,WSW,250,4.0,5.8,61,0.00,,-RA,0.08,VWS V12.08,2013-02-20 03:47:00,
2013-02-19 22:52:00,27.4,14.9,29.91,South,190,0.0,0.0,59,0.00,,-RA,0.08,VWS V12.08,2013-02-20 03:52:00,
2013-02-19 22:57:00,27.4,13.7,29.91,SSW,210,0.0,0.0,56,0.00,,-RA,0.08,VWS V12.08,2013-02-20 03:57:00,
2013-02-19 23:02:00,27.4,13.3,29.91,SW,236,0.0,0.0,55,0.00,,-RA,0.08,VWS V12.08,2013-02-20 04:02:00,
2013-02-19 23:07:00,27.4,13.3,29.91,SW,218,0.0,0.0,55,0.00,,-RA,0.08,VWS V12.08,2013-02-20 04:07:00,
2013-02-19 23:12:00,27.4,13.3,29.91,SW,224,0.0,0.0,55,0.00,,-RA,0.08,VWS V12.08,2013-02-20 04:12:00,
2013-02-19 23:17:00,27.2,12.8,29.91,SW,221,0.0,0.0,54,0.00,,-RA,0.08,VWS V12.08,2013-02-20 04:17:00,
2013-02-19 23:22:00,27.4,13.7,29.91,SW,220,0.0,0.0,56,0.00,,-RA,0.08,VWS V12.08,2013-02-20 04:22:00,
2013-02-19 23:27:00,27.4,13.3,29.91,West,278,0.0,0.0,55,0.00,,-RA,0.08,VWS V12.08,2013-02-20 04:27:00,
2013-02-19 23:32:00,27.2,13.2,29.91,SW,223,0.0,0.0,55,0.00,,-RA,0.08,VWS V12.08,2013-02-20 04:32:00,
2013-02-19 23:37:00,27.4,13.3,29.91,SW,218,0.0,0.0,55,0.00,,-RA,0.08,VWS V12.08,2013-02-20 04:37:00,
2013-02-19 23:42:00,27.4,13.7,29.91,SW,219,0.0,0.0,56,0.00,,-RA,0.08,VWS V12.08,2013-02-20 04:42:00,
2013-02-19 23:47:00,27.0,12.6,29.91,SSW,209,0.0,0.0,54,0.00,,-RA,0.08,VWS V12.08,2013-02-20 04:47:00,
2013-02-19 23:52:00,27.2,12.8,29.91,SW,235,0.0,0.0,54,0.00,,-RA,0.08,VWS V12.08,2013-02-20 04:52:00,
2013-02-19 23:57:00,27.2,12.3,29.91,SW,216,0.0,0.0,53,0.00,,-RA,0.08,VWS V12.08,2013-02-20 04:57:00,